Time;durP1;ratioP1;P1;durP2;ratioP2;P2;SDS_P1;SDS_P2;PMS_P1;PMS_P2;Temp;Humidity;BMP_temperature;BMP_pressure;BME280_temperature;BME280_humidity;BME280_pressure;Samples;Min_cycle;Max_cycle;Signal;HPM_P1;HPM_P2
2022/03/08 00:01:44;;;;;;;;;;;21.20;37.30;;;;;;6320948;27;20964;-50
2022/03/08 00:04:46;;;;;;;;;;;21.00;36.90;;;;;;6319936;27;19927;-51
2022/03/08 00:07:47;;;;;;;;;;;21.10;37.00;;;;;;6322236;27;20046;-55
2022/03/08 00:10:49;;;;;;;;;;;20.90;36.80;;;;;;6320726;27;20053;-49
2022/03/08 00:13:51;;;;;;;;;;;21.40;37.00;;;;;;6320507;27;20319;-54
2022/03/08 00:16:53;;;;;;;;;;;21.50;37.10;;;;;;6305571;27;19927;-49
2022/03/08 00:19:54;;;;;;;;;;;21.10;37.00;;;;;;6324082;27;20629;-52
2022/03/08 00:22:55;;;;;;;;;;;21.00;37.00;;;;;;6324990;27;20715;-54
2022/03/08 00:25:59;;;;;;;;;;;21.00;36.80;;;;;;6323073;27;19923;-54
2022/03/08 00:29:01;;;;;;;;;;;21.60;37.20;;;;;;6324807;27;20680;-53
2022/03/08 00:32:03;;;;;;;;;;;20.70;36.70;;;;;;6319711;27;19931;-52
2022/03/08 00:35:05;;;;;;;;;;;21.30;37.00;;;;;;6325985;27;20045;-53
2022/03/08 00:38:06;;;;;;;;;;;21.60;37.20;;;;;;6301403;27;20830;-51
2022/03/08 00:41:08;;;;;;;;;;;20.80;36.80;;;;;;6324017;27;19927;-51
2022/03/08 00:44:09;;;;;;;;;;;21.00;37.00;;;;;;6325226;27;19931;-54
2022/03/08 00:47:11;;;;;;;;;;;21.30;37.00;;;;;;6323550;27;19924;-53
2022/03/08 00:50:14;;;;;;;;;;;21.00;36.90;;;;;;6316880;27;20003;-55
2022/03/08 00:53:15;;;;;;;;;;;20.90;36.90;;;;;;6307998;27;20054;-54
2022/03/08 00:56:17;;;;;;;;;;;21.30;37.10;;;;;;6310519;27;20664;-52
2022/03/08 00:59:20;;;;;;;;;;;21.40;37.10;;;;;;6324688;27;19970;-53
2022/03/08 01:02:21;;;;;;;;;;;20.90;36.80;;;;;;6326760;27;20853;-54
2022/03/08 01:05:23;;;;;;;;;;;21.00;37.00;;;;;;6329985;27;19933;-50
2022/03/08 01:08:25;;;;;;;;;;;21.00;37.00;;;;;;6329930;27;20107;-56
2022/03/08 01:11:29;;;;;;;;;;;21.10;37.00;;;;;;6330818;27;20042;-57
2022/03/08 01:14:30;;;;;;;;;;;21.20;36.90;;;;;;6331284;27;19964;-54
2022/03/08 01:17:33;;;;;;;;;;;20.60;36.80;;;;;;6310806;27;19973;-54
2022/03/08 01:20:34;;;;;;;;;;;21.10;37.00;;;;;;6330188;27;19938;-54
2022/03/08 01:23:35;;;;;;;;;;;20.70;36.90;;;;;;6331145;27;19927;-51
2022/03/08 01:26:37;;;;;;;;;;;20.70;36.80;;;;;;6323198;27;19938;-52
2022/03/08 01:29:39;;;;;;;;;;;20.90;37.00;;;;;;6330489;27;20452;-52
2022/03/08 01:32:40;;;;;;;;;;;21.00;37.10;;;;;;6330022;27;19927;-55
2022/03/08 01:35:42;;;;;;;;;;;20.80;36.90;;;;;;6327541;27;19927;-53
2022/03/08 01:38:43;;;;;;;;;;;20.90;36.70;;;;;;6330310;27;21133;-56
2022/03/08 01:41:45;;;;;;;;;;;20.80;37.60;;;;;;6329681;27;19931;-54
2022/03/08 01:44:47;;;;;;;;;;;20.80;36.90;;;;;;6328140;27;19923;-53
2022/03/08 01:47:48;;;;;;;;;;;20.70;36.80;;;;;;6329165;27;19931;-51
2022/03/08 01:50:50;;;;;;;;;;;20.80;37.00;;;;;;6330296;27;19934;-54
2022/03/08 01:53:51;;;;;;;;;;;20.70;37.00;;;;;;6330327;27;19931;-53
2022/03/08 01:56:53;;;;;;;;;;;20.70;37.00;;;;;;6329498;27;20045;-52
2022/03/08 01:59:54;;;;;;;;;;;21.20;37.00;;;;;;6334155;27;20050;-53
2022/03/08 02:02:56;;;;;;;;;;;21.00;37.00;;;;;;6326920;27;19931;-54
2022/03/08 02:05:58;;;;;;;;;;;20.80;36.90;;;;;;6330584;27;19931;-52
2022/03/08 02:09:00;;;;;;;;;;;20.80;36.80;;;;;;6327455;27;19936;-51
2022/03/08 02:12:03;;;;;;;;;;;20.70;36.80;;;;;;6333227;27;19938;-50
2022/03/08 02:15:12;;;;;;;;;;;20.90;37.00;;;;;;6330427;27;20050;-55
2022/03/08 02:18:13;;;;;;;;;;;20.60;36.80;;;;;;6327962;27;19927;-50
2022/03/08 02:21:16;;;;;;;;;;;21.00;37.10;;;;;;6328066;27;19923;-53
2022/03/08 02:24:17;;;;;;;;;;;21.00;36.40;;;;;;6331951;27;19997;-51
2022/03/08 02:27:19;;;;;;;;;;;20.80;37.00;;;;;;6330445;27;20913;-56
2022/03/08 02:30:21;;;;;;;;;;;21.10;36.70;;;;;;6308534;27;20017;-61
2022/03/08 02:33:23;;;;;;;;;;;21.00;37.10;;;;;;6310494;27;19931;-52
2022/03/08 02:36:25;;;;;;;;;;;20.50;37.00;;;;;;6329177;27;20107;-52
2022/03/08 02:39:26;;;;;;;;;;;20.70;36.90;;;;;;6331912;27;20069;-51
2022/03/08 02:42:28;;;;;;;;;;;21.10;37.20;;;;;;6322067;27;20020;-51
2022/03/08 02:45:29;;;;;;;;;;;20.60;36.90;;;;;;6322394;27;20307;-51
2022/03/08 02:48:31;;;;;;;;;;;21.00;37.10;;;;;;6322517;27;20046;-52
2022/03/08 02:51:33;;;;;;;;;;;21.00;37.10;;;;;;6318942;27;20178;-54
2022/03/08 02:54:34;;;;;;;;;;;20.80;36.90;;;;;;6324351;27;20396;-54
2022/03/08 02:57:36;;;;;;;;;;;20.90;37.10;;;;;;6324788;27;19935;-54
2022/03/08 03:00:37;;;;;;;;;;;21.10;37.20;;;;;;6325793;27;20017;-51
2022/03/08 03:03:38;;;;;;;;;;;20.90;37.10;;;;;;6301392;27;20015;-50
2022/03/08 03:06:40;;;;;;;;;;;20.90;37.10;;;;;;6323923;27;20493;-51
2022/03/08 03:09:42;;;;;;;;;;;20.80;37.00;;;;;;6315568;27;19973;-53
2022/03/08 03:12:44;;;;;;;;;;;20.60;36.90;;;;;;6306098;27;20295;-51
2022/03/08 03:15:45;;;;;;;;;;;20.70;37.00;;;;;;6326957;27;20364;-51
2022/03/08 03:18:47;;;;;;;;;;;20.60;36.90;;;;;;6324300;27;19931;-49
2022/03/08 03:21:49;;;;;;;;;;;21.00;37.10;;;;;;6323674;27;20390;-53
2022/03/08 03:24:50;;;;;;;;;;;20.40;36.80;;;;;;6304149;27;20106;-55
2022/03/08 03:27:52;;;;;;;;;;;20.40;36.80;;;;;;6320202;27;20643;-50
2022/03/08 03:30:53;;;;;;;;;;;21.10;37.30;;;;;;6304874;27;20240;-52
2022/03/08 03:33:54;;;;;;;;;;;21.10;37.40;;;;;;6310363;27;19935;-51
2022/03/08 03:36:56;;;;;;;;;;;20.60;37.00;;;;;;6322734;27;20045;-51
2022/03/08 03:39:58;;;;;;;;;;;20.50;36.80;;;;;;6330939;27;20057;-52
2022/03/08 03:42:59;;;;;;;;;;;20.50;37.10;;;;;;6333143;27;20016;-54
2022/03/08 03:46:01;;;;;;;;;;;20.70;37.00;;;;;;6329783;27;20088;-53
2022/03/08 03:49:03;;;;;;;;;;;21.20;37.40;;;;;;6328087;27;20050;-55
2022/03/08 03:52:05;;;;;;;;;;;20.90;37.30;;;;;;6330524;27;19934;-51
2022/03/08 03:55:07;;;;;;;;;;;20.50;36.80;;;;;;6317473;27;20720;-52
2022/03/08 03:58:09;;;;;;;;;;;21.20;37.10;;;;;;6321673;27;19962;-52
2022/03/08 04:01:10;;;;;;;;;;;20.90;36.80;;;;;;6318255;27;20589;-54
2022/03/08 04:04:12;;;;;;;;;;;20.60;37.00;;;;;;6324595;27;20023;-53
2022/03/08 04:07:14;;;;;;;;;;;20.80;37.10;;;;;;6326868;27;19965;-54
2022/03/08 04:10:16;;;;;;;;;;;20.60;36.90;;;;;;6328317;27;19931;-51
2022/03/08 04:13:17;;;;;;;;;;;20.60;36.90;;;;;;6320044;27;19928;-51
2022/03/08 04:16:19;;;;;;;;;;;20.70;37.00;;;;;;6323085;27;19927;-54
2022/03/08 04:19:20;;;;;;;;;;;20.70;37.10;;;;;;6320314;27;20812;-51
2022/03/08 04:22:22;;;;;;;;;;;20.80;37.10;;;;;;6321172;27;20021;-53
2022/03/08 04:25:23;;;;;;;;;;;20.30;37.40;;;;;;6320967;27;20263;-49
2022/03/08 04:28:25;;;;;;;;;;;20.60;37.10;;;;;;6323480;27;19923;-55
2022/03/08 04:31:26;;;;;;;;;;;21.20;37.30;;;;;;6333460;27;19965;-55
2022/03/08 04:34:28;;;;;;;;;;;20.80;37.20;;;;;;6332521;27;19999;-53
2022/03/08 04:37:30;;;;;;;;;;;20.40;37.00;;;;;;6327815;27;20240;-56
2022/03/08 04:40:31;;;;;;;;;;;20.70;37.00;;;;;;6316418;27;19927;-54
2022/03/08 04:43:32;;;;;;;;;;;20.80;37.20;;;;;;6325457;27;20041;-51
2022/03/08 04:46:34;;;;;;;;;;;20.80;37.20;;;;;;6328300;27;20500;-55
2022/03/08 04:49:35;;;;;;;;;;;20.80;37.20;;;;;;6325517;27;20277;-54
2022/03/08 04:52:37;;;;;;;;;;;20.50;37.10;;;;;;6323223;27;20356;-52
2022/03/08 04:55:39;;;;;;;;;;;20.80;37.00;;;;;;6328774;27;19926;-50
2022/03/08 04:58:43;;;;;;;;;;;20.70;37.10;;;;;;6325950;27;20900;-56
2022/03/08 05:01:45;;;;;;;;;;;20.70;37.10;;;;;;6320318;27;20611;-53
2022/03/08 05:04:46;;;;;;;;;;;20.60;37.20;;;;;;6319215;27;19927;-52
2022/03/08 05:07:48;;;;;;;;;;;20.60;37.20;;;;;;6326092;27;20288;-52
2022/03/08 05:10:49;;;;;;;;;;;20.60;37.00;;;;;;6324927;27;19971;-52
2022/03/08 05:13:51;;;;;;;;;;;20.60;37.20;;;;;;6326118;27;20049;-50
2022/03/08 05:16:52;;;;;;;;;;;20.70;36.80;;;;;;6325539;27;20444;-50
2022/03/08 05:19:54;;;;;;;;;;;20.80;37.10;;;;;;6325535;27;20042;-56
2022/03/08 05:23:00;;;;;;;;;;;20.80;37.20;;;;;;6328994;27;20296;-53
2022/03/08 05:26:04;;;;;;;;;;;20.60;37.10;;;;;;6326563;27;20846;-57
2022/03/08 05:29:06;;;;;;;;;;;20.40;37.10;;;;;;6325754;27;19934;-58
2022/03/08 05:32:08;;;;;;;;;;;20.90;37.20;;;;;;6297971;27;20118;-53
2022/03/08 05:35:11;;;;;;;;;;;20.70;37.10;;;;;;6319131;27;19931;-52
2022/03/08 05:38:13;;;;;;;;;;;20.60;37.10;;;;;;6316317;27;20735;-53
2022/03/08 05:41:18;;;;;;;;;;;20.70;37.00;;;;;;6307806;27;20170;-53
2022/03/08 05:44:19;;;;;;;;;;;20.70;37.30;;;;;;6317396;27;19923;-54
2022/03/08 05:47:21;;;;;;;;;;;21.10;37.40;;;;;;6317160;27;20034;-55
2022/03/08 05:50:22;;;;;;;;;;;20.90;37.40;;;;;;6326092;27;20041;-51
2022/03/08 05:53:24;;;;;;;;;;;20.60;37.30;;;;;;6322202;27;20070;-54
2022/03/08 05:56:25;;;;;;;;;;;20.30;37.00;;;;;;6318432;27;20050;-53
2022/03/08 05:59:27;;;;;;;;;;;20.60;37.30;;;;;;6321364;27;20054;-52
2022/03/08 06:02:28;;;;;;;;;;;20.90;37.40;;;;;;6319367;27;20939;-55
2022/03/08 06:05:30;;;;;;;;;;;20.70;37.30;;;;;;6322615;27;19935;-51
2022/03/08 06:08:32;;;;;;;;;;;20.30;37.10;;;;;;6319047;27;20918;-51
2022/03/08 06:11:33;;;;;;;;;;;20.70;37.10;;;;;;6269079;27;19966;-54
2022/03/08 06:14:34;;;;;;;;;;;20.50;37.20;;;;;;6319193;27;19927;-55
2022/03/08 06:17:36;;;;;;;;;;;20.50;37.10;;;;;;6323151;27;20018;-50
2022/03/08 06:20:37;;;;;;;;;;;20.50;37.10;;;;;;6319209;27;19967;-55
2022/03/08 06:23:39;;;;;;;;;;;20.80;37.40;;;;;;6308526;27;21054;-52
2022/03/08 06:26:40;;;;;;;;;;;20.60;37.20;;;;;;6314038;27;19927;-53
2022/03/08 06:29:47;;;;;;;;;;;20.80;37.40;;;;;;6310243;27;19943;-54
2022/03/08 06:32:48;;;;;;;;;;;20.70;36.90;;;;;;6311568;27;20798;-54
2022/03/08 06:35:50;;;;;;;;;;;20.70;37.40;;;;;;6313403;27;19959;-51
2022/03/08 06:38:51;;;;;;;;;;;20.40;37.10;;;;;;6317700;27;20004;-53
2022/03/08 06:41:53;;;;;;;;;;;20.60;37.10;;;;;;6317172;27;20045;-52
2022/03/08 06:44:54;;;;;;;;;;;20.30;37.00;;;;;;6304890;27;19938;-54
2022/03/08 06:47:55;;;;;;;;;;;20.50;37.10;;;;;;6309872;27;20053;-53
2022/03/08 06:50:57;;;;;;;;;;;20.90;37.30;;;;;;6310936;27;20764;-53
2022/03/08 06:53:59;;;;;;;;;;;20.80;37.00;;;;;;6309207;27;20889;-52
2022/03/08 06:57:02;;;;;;;;;;;20.80;36.90;;;;;;6308623;27;19930;-51
2022/03/08 07:00:05;;;;;;;;;;;20.70;36.80;;;;;;6314063;27;20063;-55
2022/03/08 07:03:06;;;;;;;;;;;21.00;36.80;;;;;;6279972;27;19932;-52
2022/03/08 07:06:09;;;;;;;;;;;20.80;36.80;;;;;;6302715;27;20309;-54
2022/03/08 07:09:11;;;;;;;;;;;20.50;36.60;;;;;;6300718;27;19935;-53
2022/03/08 07:12:14;;;;;;;;;;;20.70;36.60;;;;;;6310675;27;20023;-49
2022/03/08 07:15:16;;;;;;;;;;;21.00;34.00;;;;;;6307852;27;19935;-55
2022/03/08 07:18:17;;;;;;;;;;;20.80;36.50;;;;;;6293896;27;19939;-53
2022/03/08 07:21:19;;;;;;;;;;;20.60;36.40;;;;;;6295101;27;19931;-51
2022/03/08 07:24:21;;;;;;;;;;;21.10;36.70;;;;;;6295050;27;19962;-54
2022/03/08 07:27:22;;;;;;;;;;;20.70;36.30;;;;;;6292684;27;20006;-52
2022/03/08 07:30:24;;;;;;;;;;;20.90;36.40;;;;;;6292204;27;19931;-54
2022/03/08 07:33:25;;;;;;;;;;;21.30;36.40;;;;;;6281967;27;20863;-53
2022/03/08 07:36:27;;;;;;;;;;;21.20;36.50;;;;;;6279568;27;19938;-52
2022/03/08 07:39:28;;;;;;;;;;;20.90;36.30;;;;;;6261479;27;20732;-51
2022/03/08 07:42:30;;;;;;;;;;;21.00;36.30;;;;;;6269705;27;19935;-50
2022/03/08 07:45:32;;;;;;;;;;;20.80;36.10;;;;;;6252408;27;20066;-50
2022/03/08 07:48:34;;;;;;;;;;;21.60;36.40;;;;;;6261877;27;19931;-52
2022/03/08 07:51:36;;;;;;;;;;;21.50;36.00;;;;;;6226482;27;39822;-51
2022/03/08 07:54:37;;;;;;;;;;;21.60;36.00;;;;;;6208739;27;21762;-54
2022/03/08 07:57:39;;;;;;;;;;;21.50;35.70;;;;;;6249664;27;33673;-51
2022/03/08 08:01:00;;;;;;;;;;;21.20;35.50;;;;;;6177771;27;25879;-50
2022/03/08 08:04:03;;;;;;;;;;;21.20;35.60;;;;;;6187847;27;22278;-50
2022/03/08 08:07:04;;;;;;;;;;;21.70;35.90;;;;;;6166836;27;29025;-55
2022/03/08 08:10:06;;;;;;;;;;;21.50;35.50;;;;;;6137317;27;20057;-50
2022/03/08 08:13:08;;;;;;;;;;;21.40;35.10;;;;;;6116087;27;21273;-51
2022/03/08 08:16:10;;;;;;;;;;;21.30;35.40;;;;;;6142959;27;19931;-51
2022/03/08 08:19:11;;;;;;;;;;;21.40;35.30;;;;;;6124027;27;22554;-50
2022/03/08 08:22:13;;;;;;;;;;;21.80;35.60;;;;;;6140488;27;22084;-52
2022/03/08 08:25:16;;;;;;;;;;;21.90;35.40;;;;;;6116974;27;31904;-49
2022/03/08 08:28:17;;;;;;;;;;;21.80;35.50;;;;;;6129500;27;19967;-52
2022/03/08 08:31:19;;;;;;;;;;;21.40;35.30;;;;;;6119548;27;19930;-48
2022/03/08 08:34:20;;;;;;;;;;;21.80;35.60;;;;;;6127828;27;19938;-52
2022/03/08 08:37:22;;;;;;;;;;;21.70;35.20;;;;;;6138034;27;22805;-48
2022/03/08 08:40:24;;;;;;;;;;;21.80;35.40;;;;;;6130956;27;20363;-52
2022/03/08 08:43:25;;;;;;;;;;;21.90;35.30;;;;;;6149330;27;19938;-50
2022/03/08 08:46:26;;;;;;;;;;;22.10;35.50;;;;;;6116342;27;19939;-50
2022/03/08 08:49:28;;;;;;;;;;;21.80;35.30;;;;;;6117013;27;19931;-49
2022/03/08 08:52:36;;;;;;;;;;;21.60;35.10;;;;;;6089535;27;19987;-51
2022/03/08 08:55:38;;;;;;;;;;;22.20;35.10;;;;;;6101603;27;19986;-52
2022/03/08 08:58:39;;;;;;;;;;;21.60;34.80;;;;;;6096712;27;28858;-52
2022/03/08 09:01:41;;;;;;;;;;;21.90;35.10;;;;;;6043883;27;20028;-50
2022/03/08 09:04:43;;;;;;;;;;;22.20;35.20;;;;;;6070731;27;21220;-53
2022/03/08 09:07:44;;;;;;;;;;;21.90;34.80;;;;;;6058736;27;19931;-52
2022/03/08 09:10:46;;;;;;;;;;;21.80;35.20;;;;;;6091132;27;19932;-51
2022/03/08 09:13:48;;;;;;;;;;;22.10;35.10;;;;;;6086243;27;20058;-55
2022/03/08 09:16:49;;;;;;;;;;;22.20;35.10;;;;;;6077899;27;19932;-51
2022/03/08 09:19:51;;;;;;;;;;;21.50;34.40;;;;;;6075776;27;21696;-55
2022/03/08 09:22:53;;;;;;;;;;;22.90;35.30;;;;;;6073905;27;19938;-54
2022/03/08 09:25:55;;;;;;;;;;;22.30;35.30;;;;;;6087702;27;20004;-52
2022/03/08 09:28:56;;;;;;;;;;;22.40;34.90;;;;;;6095763;27;19938;-50
2022/03/08 09:31:58;;;;;;;;;;;21.90;33.70;;;;;;6081895;27;20091;-52
2022/03/08 09:34:59;;;;;;;;;;;22.60;35.10;;;;;;6073094;27;19931;-52
2022/03/08 09:38:01;;;;;;;;;;;22.30;34.90;;;;;;6074779;27;21413;-49
2022/03/08 09:41:03;;;;;;;;;;;22.40;35.00;;;;;;6079976;27;19931;-54
2022/03/08 09:44:10;;;;;;;;;;;22.30;34.70;;;;;;6074945;27;19931;-53
2022/03/08 09:47:11;;;;;;;;;;;22.40;34.80;;;;;;6081650;27;19938;-50
2022/03/08 09:50:14;;;;;;;;;;;22.10;34.80;;;;;;6073725;27;19971;-49
2022/03/08 09:53:21;;;;;;;;;;;22.60;35.00;;;;;;6067149;27;19931;-51
2022/03/08 09:56:23;;;;;;;;;;;21.90;35.20;;;;;;6062805;27;22176;-53
2022/03/08 09:59:29;;;;;;;;;;;22.70;34.90;;;;;;6089343;27;27909;-55
2022/03/08 10:02:41;;;;;;;;;;;22.70;35.00;;;;;;6061099;27;19931;-54
2022/03/08 10:05:43;;;;;;;;;;;22.50;35.00;;;;;;6048217;27;19931;-53
2022/03/08 10:08:45;;;;;;;;;;;22.50;35.00;;;;;;6059683;27;19935;-51
2022/03/08 10:11:50;;;;;;;;;;;22.50;34.80;;;;;;6064421;27;22218;-54
2022/03/08 10:15:16;;;;;;;;;;;22.50;34.70;;;;;;6057338;27;19946;-49
2022/03/08 10:18:30;;;;;;;;;;;22.80;34.40;;;;;;6067089;27;19938;-53
2022/03/08 10:21:33;;;;;;;;;;;22.20;34.60;;;;;;6049596;27;19966;-51
2022/03/08 10:24:36;;;;;;;;;;;22.20;34.40;;;;;;6093042;27;20014;-54
2022/03/08 10:27:41;;;;;;;;;;;23.00;35.10;;;;;;6079879;27;20486;-55
2022/03/08 10:30:51;;;;;;;;;;;22.90;34.80;;;;;;6114311;27;19939;-52
2022/03/08 10:34:01;;;;;;;;;;;22.70;34.80;;;;;;6067947;27;20016;-52
2022/03/08 10:37:07;;;;;;;;;;;22.90;34.80;;;;;;6061701;27;19931;-57
2022/03/08 10:40:09;;;;;;;;;;;22.60;34.60;;;;;;6103504;27;19931;-53
2022/03/08 10:43:13;;;;;;;;;;;22.80;34.70;;;;;;6094984;27;21083;-57
2022/03/08 10:46:16;;;;;;;;;;;22.80;34.60;;;;;;6106756;27;19937;-53
2022/03/08 10:49:18;;;;;;;;;;;22.40;34.50;;;;;;6100986;27;19939;-53
2022/03/08 10:52:28;;;;;;;;;;;22.90;34.80;;;;;;6125510;27;19931;-54
2022/03/08 10:55:34;;;;;;;;;;;23.00;34.80;;;;;;6134673;27;19972;-52
2022/03/08 10:58:50;;;;;;;;;;;22.90;33.00;;;;;;6043050;27;35012;-51
2022/03/08 11:01:52;;;;;;;;;;;22.70;34.50;;;;;;6070439;27;20073;-54
2022/03/08 11:05:06;;;;;;;;;;;22.90;34.70;;;;;;6098681;27;20102;-53
2022/03/08 11:08:08;;;;;;;;;;;22.80;34.70;;;;;;6067333;27;20063;-53
2022/03/08 11:11:10;;;;;;;;;;;22.70;34.70;;;;;;6086062;27;21368;-53
2022/03/08 11:14:11;;;;;;;;;;;22.90;34.80;;;;;;6089006;27;19938;-55
2022/03/08 11:17:13;;;;;;;;;;;23.00;34.80;;;;;;6087538;27;19983;-51
2022/03/08 11:20:16;;;;;;;;;;;23.10;34.70;;;;;;6119816;27;19931;-55
2022/03/08 11:23:18;;;;;;;;;;;23.00;34.90;;;;;;6111036;27;19931;-55
2022/03/08 11:26:21;;;;;;;;;;;22.70;34.70;;;;;;6125954;27;19931;-54
2022/03/08 11:29:24;;;;;;;;;;;23.00;34.70;;;;;;6152884;27;19931;-53
2022/03/08 11:32:32;;;;;;;;;;;23.00;34.70;;;;;;6128451;27;20061;-51
2022/03/08 11:35:40;;;;;;;;;;;23.00;34.70;;;;;;6162124;27;20011;-50
2022/03/08 11:39:06;;;;;;;;;;;22.80;33.90;;;;;;6187449;27;21469;-52
2022/03/08 11:42:20;;;;;;;;;;;23.10;34.80;;;;;;6162114;27;20063;-51
2022/03/08 11:45:23;;;;;;;;;;;22.60;34.40;;;;;;6167414;27;19931;-55
2022/03/08 11:48:25;;;;;;;;;;;22.90;34.70;;;;;;6215895;27;20103;-52
2022/03/08 11:51:29;;;;;;;;;;;23.10;34.60;;;;;;6212896;27;19931;-54
2022/03/08 11:54:30;;;;;;;;;;;22.90;34.80;;;;;;6203305;27;19938;-55
2022/03/08 11:57:47;;;;;;;;;;;23.20;34.70;;;;;;6229266;27;26299;-54
2022/03/08 12:00:49;;;;;;;;;;;22.80;34.30;;;;;;6201986;27;21817;-57
2022/03/08 12:03:55;;;;;;;;;;;22.80;34.60;;;;;;6222040;27;19930;-53
2022/03/08 12:06:58;;;;;;;;;;;23.00;34.40;;;;;;6211889;27;19932;-52
2022/03/08 12:10:10;;;;;;;;;;;22.80;34.60;;;;;;6196464;27;19931;-57
2022/03/08 12:13:13;;;;;;;;;;;22.90;34.50;;;;;;6206208;27;21294;-51
2022/03/08 12:16:24;;;;;;;;;;;23.40;34.70;;;;;;6212955;27;19931;-54
2022/03/08 12:19:35;;;;;;;;;;;23.10;33.20;;;;;;6201567;27;19973;-52
2022/03/08 12:22:36;;;;;;;;;;;23.10;34.60;;;;;;6195003;27;20012;-52
2022/03/08 12:25:37;;;;;;;;;;;23.10;34.70;;;;;;6204651;27;19939;-52
2022/03/08 12:28:50;;;;;;;;;;;23.20;34.90;;;;;;6197078;27;20267;-56
2022/03/08 12:32:07;;;;;;;;;;;23.40;34.00;;;;;;6190185;27;19971;-55
2022/03/08 12:35:11;;;;;;;;;;;23.30;34.80;;;;;;6188294;27;19931;-50
2022/03/08 12:38:16;;;;;;;;;;;22.90;35.20;;;;;;6179420;27;19935;-52
2022/03/08 12:41:23;;;;;;;;;;;22.90;34.70;;;;;;6152089;27;19931;-49
2022/03/08 12:44:25;;;;;;;;;;;23.20;34.80;;;;;;6169630;27;20065;-53
2022/03/08 12:47:27;;;;;;;;;;;22.90;34.80;;;;;;6184793;27;20081;-53
2022/03/08 12:50:31;;;;;;;;;;;23.20;35.00;;;;;;6152738;27;19967;-52
2022/03/08 12:53:32;;;;;;;;;;;23.20;34.70;;;;;;6135008;27;20004;-52
2022/03/08 12:56:35;;;;;;;;;;;23.30;34.90;;;;;;6143053;27;20008;-47
2022/03/08 12:59:45;;;;;;;;;;;23.00;34.40;;;;;;6139437;27;20896;-51
2022/03/08 13:02:48;;;;;;;;;;;23.30;34.90;;;;;;6111044;27;21824;-49
2022/03/08 13:05:51;;;;;;;;;;;23.20;34.90;;;;;;6111643;27;19932;-52
2022/03/08 13:08:52;;;;;;;;;;;21.90;34.20;;;;;;6101967;27;19938;-47
2022/03/08 13:11:56;;;;;;;;;;;23.10;35.10;;;;;;6098646;27;19935;-49
2022/03/08 13:15:08;;;;;;;;;;;23.10;34.80;;;;;;6065642;27;19943;-48
2022/03/08 13:18:09;;;;;;;;;;;23.40;34.90;;;;;;6107908;27;19973;-48
2022/03/08 13:21:14;;;;;;;;;;;23.20;35.00;;;;;;6116262;27;20070;-47
2022/03/08 13:24:16;;;;;;;;;;;23.30;34.70;;;;;;6064878;27;21216;-47
2022/03/08 13:27:17;;;;;;;;;;;23.30;34.90;;;;;;6112034;27;19931;-47
2022/03/08 13:30:20;;;;;;;;;;;23.60;35.30;;;;;;6099897;27;20911;-47
2022/03/08 13:33:23;;;;;;;;;;;23.40;35.00;;;;;;6108875;27;19988;-48
2022/03/08 13:36:26;;;;;;;;;;;23.60;35.10;;;;;;6077256;27;20441;-47
2022/03/08 13:39:27;;;;;;;;;;;23.50;35.10;;;;;;6110074;27;19939;-47
2022/03/08 13:42:28;;;;;;;;;;;23.40;35.10;;;;;;6097402;27;22614;-49
2022/03/08 13:45:50;;;;;;;;;;;23.30;35.10;;;;;;6072682;27;19966;-47
2022/03/08 13:48:58;;;;;;;;;;;23.30;35.10;;;;;;6076373;27;19935;-47
2022/03/08 13:52:00;;;;;;;;;;;23.20;34.90;;;;;;6021586;27;19932;-47
2022/03/08 13:55:04;;;;;;;;;;;23.20;34.90;;;;;;6042051;27;19932;-46
2022/03/08 13:58:07;;;;;;;;;;;23.20;35.00;;;;;;6037810;27;39079;-49
2022/03/08 14:01:09;;;;;;;;;;;22.90;34.80;;;;;;6039651;27;20018;-47
2022/03/08 14:04:24;;;;;;;;;;;23.30;35.40;;;;;;6018396;27;19931;-49
2022/03/08 14:07:26;;;;;;;;;;;23.40;35.10;;;;;;6082971;27;20107;-50
2022/03/08 14:10:28;;;;;;;;;;;23.20;34.90;;;;;;6104734;27;19938;-48
2022/03/08 14:13:31;;;;;;;;;;;23.10;34.90;;;;;;6076352;27;19930;-47
2022/03/08 14:16:40;;;;;;;;;;;23.00;35.00;;;;;;6059368;27;19939;-49
2022/03/08 14:19:44;;;;;;;;;;;23.20;34.80;;;;;;6075863;27;19931;-48
2022/03/08 14:23:00;;;;;;;;;;;23.30;35.20;;;;;;6093681;27;19931;-47
2022/03/08 14:26:04;;;;;;;;;;;23.30;35.20;;;;;;6099689;27;19947;-48
2022/03/08 14:29:10;;;;;;;;;;;23.00;34.90;;;;;;6119114;27;20380;-47
2022/03/08 14:32:12;;;;;;;;;;;23.20;35.10;;;;;;6098930;27;19972;-47
2022/03/08 14:35:15;;;;;;;;;;;23.50;35.20;;;;;;6081720;27;20192;-48
2022/03/08 14:38:17;;;;;;;;;;;23.30;35.00;;;;;;6068194;27;19938;-50
2022/03/08 14:41:26;;;;;;;;;;;23.10;35.00;;;;;;6096780;27;21627;-52
2022/03/08 14:44:30;;;;;;;;;;;24.10;35.40;;;;;;6093947;27;19937;-47
2022/03/08 14:47:33;;;;;;;;;;;23.00;35.00;;;;;;6111818;27;20063;-51
2022/03/08 14:50:34;;;;;;;;;;;23.20;35.20;;;;;;6091178;27;21059;-48
2022/03/08 14:53:36;;;;;;;;;;;23.80;35.70;;;;;;6080296;27;19931;-48
2022/03/08 14:56:38;;;;;;;;;;;23.70;35.50;;;;;;6079479;27;20012;-46
2022/03/08 14:59:39;;;;;;;;;;;23.50;35.40;;;;;;6092312;27;19957;-48
2022/03/08 15:02:41;;;;;;;;;;;23.50;35.40;;;;;;6071594;27;21922;-47
2022/03/08 15:05:43;;;;;;;;;;;23.80;35.30;;;;;;6055148;27;21563;-48
2022/03/08 15:08:44;;;;;;;;;;;23.50;35.00;;;;;;6078810;27;19931;-48
2022/03/08 15:11:46;;;;;;;;;;;23.40;35.40;;;;;;6084077;27;20068;-49
2022/03/08 15:14:48;;;;;;;;;;;23.20;35.10;;;;;;6130163;27;19932;-52
2022/03/08 15:17:49;;;;;;;;;;;24.00;35.60;;;;;;6113491;27;20016;-50
2022/03/08 15:20:51;;;;;;;;;;;23.50;35.60;;;;;;6117443;27;19932;-48
2022/03/08 15:23:53;;;;;;;;;;;23.50;35.40;;;;;;6103674;27;21086;-48
2022/03/08 15:26:55;;;;;;;;;;;23.60;35.50;;;;;;6105657;27;19931;-48
2022/03/08 15:29:57;;;;;;;;;;;23.50;35.40;;;;;;6090752;27;19931;-50
2022/03/08 15:32:58;;;;;;;;;;;23.70;35.60;;;;;;6109781;27;19931;-50
2022/03/08 15:36:00;;;;;;;;;;;23.10;35.30;;;;;;6099907;27;20002;-51
2022/03/08 15:39:03;;;;;;;;;;;23.60;35.60;;;;;;6125510;27;20000;-47
2022/03/08 15:42:05;;;;;;;;;;;23.50;35.60;;;;;;6126118;27;19935;-48
2022/03/08 15:45:07;;;;;;;;;;;23.60;35.60;;;;;;6081928;27;19937;-46
2022/03/08 15:48:09;;;;;;;;;;;23.60;35.70;;;;;;6116722;27;19932;-49
2022/03/08 15:51:10;;;;;;;;;;;23.30;35.50;;;;;;6107059;27;19937;-47
2022/03/08 15:54:11;;;;;;;;;;;23.10;35.40;;;;;;6129723;27;22111;-48
2022/03/08 15:57:13;;;;;;;;;;;23.70;35.90;;;;;;6121161;27;39553;-46
2022/03/08 16:00:15;;;;;;;;;;;23.60;35.60;;;;;;6107102;27;21932;-51
2022/03/08 16:03:17;;;;;;;;;;;23.30;35.50;;;;;;6086959;27;20508;-49
2022/03/08 16:06:18;;;;;;;;;;;23.70;35.90;;;;;;6105323;27;34421;-47
2022/03/08 16:09:20;;;;;;;;;;;23.30;35.60;;;;;;6123789;27;23482;-50
2022/03/08 16:12:22;;;;;;;;;;;23.60;36.00;;;;;;6111599;27;19931;-46
2022/03/08 16:15:23;;;;;;;;;;;23.70;36.00;;;;;;6093417;27;19939;-46
2022/03/08 16:18:24;;;;;;;;;;;23.70;35.60;;;;;;6091677;27;19939;-50
2022/03/08 16:21:27;;;;;;;;;;;23.40;36.20;;;;;;6056528;27;19939;-49
2022/03/08 16:24:28;;;;;;;;;;;23.70;35.90;;;;;;6081807;27;19938;-47
2022/03/08 16:27:30;;;;;;;;;;;23.70;36.20;;;;;;6124506;27;19931;-46
2022/03/08 16:30:34;;;;;;;;;;;23.20;35.60;;;;;;6129340;27;19931;-46
2022/03/08 16:33:36;;;;;;;;;;;23.70;36.00;;;;;;6148627;27;19937;-46
2022/03/08 16:36:37;;;;;;;;;;;23.50;36.00;;;;;;6117482;27;20652;-47
2022/03/08 16:39:39;;;;;;;;;;;23.90;36.20;;;;;;6125573;27;19935;-48
2022/03/08 16:42:41;;;;;;;;;;;23.40;35.90;;;;;;6152499;27;19939;-45
2022/03/08 16:45:42;;;;;;;;;;;23.60;35.80;;;;;;6146399;27;21530;-45
2022/03/08 16:48:47;;;;;;;;;;;23.60;36.00;;;;;;6157025;27;19945;-46
2022/03/08 16:51:48;;;;;;;;;;;23.50;35.90;;;;;;6144012;27;19941;-46
2022/03/08 16:54:49;;;;;;;;;;;23.70;36.10;;;;;;6191104;27;20223;-46
2022/03/08 16:57:51;;;;;;;;;;;23.70;36.20;;;;;;6177727;27;19935;-45
2022/03/08 17:00:58;;;;;;;;;;;23.70;36.10;;;;;;6175093;27;19931;-45
2022/03/08 17:04:00;;;;;;;;;;;23.70;36.20;;;;;;6193733;27;20336;-48
2022/03/08 17:07:02;;;;;;;;;;;23.30;35.70;;;;;;6162355;27;20062;-51
2022/03/08 17:10:07;;;;;;;;;;;23.70;36.10;;;;;;6215455;27;19931;-50
2022/03/08 17:13:09;;;;;;;;;;;23.60;36.00;;;;;;6206528;27;20074;-45
2022/03/08 17:16:10;;;;;;;;;;;23.70;36.30;;;;;;6199600;27;19963;-46
2022/03/08 17:19:15;;;;;;;;;;;23.70;36.20;;;;;;6232508;27;20761;-46
2022/03/08 17:22:16;;;;;;;;;;;23.30;36.00;;;;;;6243782;27;19962;-45
2022/03/08 17:25:17;;;;;;;;;;;23.60;36.20;;;;;;6241507;27;20061;-47
2022/03/08 17:28:20;;;;;;;;;;;23.40;36.10;;;;;;6255274;27;20919;-50
2022/03/08 17:31:21;;;;;;;;;;;23.50;36.10;;;;;;6247979;27;20061;-49
2022/03/08 17:34:23;;;;;;;;;;;23.80;36.40;;;;;;6258468;27;19939;-46
2022/03/08 17:37:25;;;;;;;;;;;23.60;36.50;;;;;;6251106;27;19931;-50
2022/03/08 17:40:27;;;;;;;;;;;23.30;36.20;;;;;;6270575;27;19930;-48
2022/03/08 17:43:29;;;;;;;;;;;23.40;36.20;;;;;;6271409;27;19931;-46